createdAt,value
2022-11-14T00:00:59.860Z,3.00
2022-11-14T00:03:26.427Z,2.73
2022-11-14T00:05:52.996Z,2.50
2022-11-14T00:08:22.092Z,2.90
2022-11-14T00:10:50.684Z,2.90
2022-11-14T00:13:18.458Z,2.57
2022-11-14T00:15:50.116Z,2.30
2022-11-14T00:18:17.726Z,3.00
2022-11-14T00:20:47.179Z,2.50
2022-11-14T00:23:13.691Z,2.60
2022-11-14T00:25:40.236Z,3.00
2022-11-14T00:28:06.859Z,2.60
2022-11-14T00:30:33.418Z,2.87
2022-11-14T00:32:59.926Z,2.90
2022-11-14T00:35:26.645Z,2.50
2022-11-14T00:37:53.237Z,3.20
2022-11-14T00:40:19.856Z,3.27
2022-11-14T00:42:46.492Z,2.93
2022-11-14T00:45:13.065Z,2.57
2022-11-14T00:47:39.635Z,2.30
2022-11-14T00:50:06.717Z,2.77
2022-11-14T00:52:33.320Z,2.77
2022-11-14T00:54:59.887Z,3.23
2022-11-14T00:57:26.427Z,2.90
2022-11-14T00:59:55.585Z,2.70
2022-11-14T01:02:22.571Z,2.63
2022-11-14T01:04:49.103Z,2.70
2022-11-14T01:07:15.663Z,2.50
2022-11-14T01:09:42.243Z,2.90
2022-11-14T01:12:08.834Z,2.50
2022-11-14T01:14:35.400Z,2.93
2022-11-14T01:17:01.935Z,2.63
2022-11-14T01:19:28.456Z,3.03
2022-11-14T01:21:55.019Z,2.90
2022-11-14T01:24:21.556Z,2.63
2022-11-14T01:26:48.115Z,2.60
2022-11-14T01:29:15.291Z,2.77
2022-11-14T01:31:41.838Z,2.50
2022-11-14T01:34:08.430Z,2.80
2022-11-14T01:36:34.973Z,2.70
2022-11-14T01:39:01.503Z,3.30
2022-11-14T01:41:28.047Z,3.33
2022-11-14T01:43:54.592Z,3.27
2022-11-14T01:46:29.057Z,2.40
2022-11-14T01:49:01.051Z,3.37
2022-11-14T01:51:38.926Z,2.57
2022-11-14T01:54:09.519Z,2.97
2022-11-14T01:56:40.249Z,2.73
2022-11-14T01:59:10.275Z,3.10
2022-11-14T02:01:42.248Z,2.63
2022-11-14T02:04:14.147Z,3.37
2022-11-14T02:06:42.331Z,2.97
2022-11-14T02:09:08.959Z,2.90
2022-11-14T02:11:40.606Z,3.30
2022-11-14T02:14:07.694Z,2.50
2022-11-14T02:16:34.933Z,3.33
2022-11-14T02:19:01.589Z,3.30
2022-11-14T02:21:28.153Z,2.93
2022-11-14T02:23:54.760Z,2.67
2022-11-14T02:26:22.690Z,2.80
2022-11-14T02:28:49.722Z,3.17
2022-11-14T02:31:16.739Z,2.70
2022-11-14T02:33:43.507Z,2.60
2022-11-14T02:36:10.346Z,2.97
2022-11-14T02:38:37.087Z,2.97
2022-11-14T02:41:03.959Z,2.57
2022-11-14T02:43:30.556Z,3.40
2022-11-14T02:46:00.268Z,2.70
2022-11-14T02:48:29.732Z,2.70
2022-11-14T02:50:56.484Z,3.47
2022-11-14T02:53:23.265Z,2.93
2022-11-14T02:55:49.838Z,2.53
2022-11-14T02:58:16.409Z,2.63
2022-11-14T03:01:05.833Z,2.53
2022-11-14T03:03:29.977Z,2.40
2022-11-14T03:06:03.373Z,3.10
2022-11-14T03:08:30.779Z,2.70
2022-11-14T03:11:06.418Z,3.20
2022-11-14T03:13:33.334Z,2.83
2022-11-14T03:16:11.472Z,2.50
2022-11-14T03:18:38.078Z,2.90
2022-11-14T03:21:06.634Z,3.00
2022-11-14T03:23:36.638Z,2.77
2022-11-14T03:26:05.186Z,2.80
2022-11-14T03:28:34.056Z,2.83
2022-11-14T03:31:00.588Z,3.07
2022-11-14T03:33:27.714Z,2.73
2022-11-14T03:35:54.778Z,2.50
2022-11-14T03:38:24.715Z,2.53
2022-11-14T03:40:51.565Z,2.70
2022-11-14T03:43:19.509Z,2.90
2022-11-14T03:45:46.727Z,2.67
2022-11-14T03:48:13.470Z,2.77
2022-11-14T03:50:40.621Z,2.60
2022-11-14T03:53:07.687Z,3.20
2022-11-14T03:55:34.368Z,2.73
2022-11-14T03:58:00.935Z,3.50
2022-11-14T04:00:28.723Z,3.20
2022-11-14T04:02:56.838Z,3.10
2022-11-14T04:05:24.421Z,2.97
2022-11-14T04:07:51.485Z,2.80
2022-11-14T04:10:18.492Z,2.37
2022-11-14T04:12:52.304Z,2.80
2022-11-14T04:15:19.587Z,2.90
2022-11-14T04:17:46.872Z,3.07
2022-11-14T04:20:14.388Z,2.83
2022-11-14T04:22:41.527Z,2.93
2022-11-14T04:25:09.246Z,2.80
2022-11-14T04:27:35.961Z,2.50
2022-11-14T04:30:03.338Z,2.80
2022-11-14T04:32:29.936Z,2.43
2022-11-14T04:34:56.524Z,2.73
2022-11-14T04:37:23.336Z,2.93
2022-11-14T04:39:49.953Z,2.80
2022-11-14T04:42:16.685Z,2.60
2022-11-14T04:44:43.348Z,2.70
2022-11-14T04:47:09.942Z,2.50
2022-11-14T04:49:36.637Z,2.90
2022-11-14T04:52:03.238Z,2.80
2022-11-14T04:54:29.810Z,2.73
2022-11-14T04:56:56.362Z,2.93
2022-11-14T04:59:22.923Z,3.10
2022-11-14T05:01:49.585Z,3.27
2022-11-14T05:04:16.277Z,3.00
2022-11-14T05:06:43.164Z,2.97
2022-11-14T05:09:09.806Z,3.00
2022-11-14T05:11:36.417Z,3.10
2022-11-14T05:14:03.083Z,2.77
2022-11-14T05:16:29.638Z,2.93
2022-11-14T05:18:56.242Z,2.80
2022-11-14T05:21:22.780Z,3.03
2022-11-14T05:23:49.321Z,2.67
2022-11-14T05:26:17.170Z,3.00
2022-11-14T05:28:43.776Z,3.17
2022-11-14T05:31:13.548Z,3.27
2022-11-14T05:33:40.250Z,3.97
2022-11-14T05:36:09.954Z,3.03
2022-11-14T05:38:37.038Z,10.07
2022-11-14T05:41:12.367Z,10.27
2022-11-14T05:43:39.961Z,10.50
2022-11-14T05:46:09.282Z,10.40
2022-11-14T05:48:35.969Z,5.97
2022-11-14T05:51:05.104Z,7.27
2022-11-14T05:53:35.942Z,6.03
2022-11-14T05:56:09.375Z,7.13
2022-11-14T05:58:36.590Z,5.87
2022-11-14T06:01:12.202Z,5.40
2022-11-14T06:03:44.089Z,5.63
2022-11-14T06:06:14.613Z,5.03
2022-11-14T06:08:41.845Z,4.50
2022-11-14T06:11:11.832Z,5.60
2022-11-14T06:13:38.760Z,5.00
2022-11-14T06:16:07.844Z,4.80
2022-11-14T06:18:35.139Z,4.47
2022-11-14T06:21:04.057Z,4.80
2022-11-14T06:23:30.697Z,4.20
2022-11-14T06:26:05.554Z,3.67
2022-11-14T06:28:32.732Z,4.73
2022-11-14T06:31:01.020Z,3.63
2022-11-14T06:33:28.638Z,4.17
2022-11-14T06:36:00.099Z,4.70
2022-11-14T06:38:27.498Z,3.77
2022-11-14T06:41:02.573Z,3.80
2022-11-14T06:43:29.212Z,3.50
2022-11-14T06:45:58.243Z,3.63
2022-11-14T06:48:24.844Z,3.20
2022-11-14T06:50:53.025Z,3.47
2022-11-14T06:53:19.928Z,3.63
2022-11-14T06:56:01.127Z,4.07
2022-11-14T06:58:33.754Z,3.87
2022-11-14T07:01:10.255Z,3.20
2022-11-14T07:03:37.097Z,3.67
2022-11-14T07:06:04.889Z,3.87
2022-11-14T07:08:32.313Z,3.80
2022-11-14T07:11:04.436Z,3.77
2022-11-14T07:13:31.399Z,3.60
2022-11-14T07:15:58.292Z,3.50
2022-11-14T07:18:25.055Z,2.97
2022-11-14T07:21:01.453Z,3.80
2022-11-14T07:23:28.621Z,3.70
2022-11-14T07:26:08.370Z,3.70
2022-11-14T07:28:36.838Z,3.50
2022-11-14T07:31:07.420Z,3.07
2022-11-14T07:33:34.651Z,3.13
2022-11-14T07:36:01.330Z,3.33
2022-11-14T07:38:28.068Z,3.60
2022-11-14T07:41:00.520Z,3.00
2022-11-14T07:43:28.090Z,3.33
2022-11-14T07:45:58.377Z,3.53
2022-11-14T07:48:24.986Z,3.30
2022-11-14T07:50:51.564Z,3.80
2022-11-14T07:53:19.298Z,3.77
2022-11-14T07:55:45.872Z,3.70
2022-11-14T07:58:13.387Z,3.43
2022-11-14T08:00:39.945Z,3.13
2022-11-14T08:03:08.062Z,3.13
2022-11-14T08:05:34.970Z,3.70
2022-11-14T08:08:01.769Z,3.50
2022-11-14T08:10:33.236Z,3.40
2022-11-14T08:13:29.881Z,3.43
2022-11-14T08:15:48.448Z,3.17
2022-11-14T08:18:14.993Z,3.03
2022-11-14T08:20:41.554Z,2.73
2022-11-14T08:23:08.128Z,3.60
2022-11-14T08:25:34.648Z,5.13
2022-11-14T08:28:01.266Z,2.80
2022-11-14T08:30:27.916Z,3.20
2022-11-14T08:32:54.593Z,3.03
2022-11-14T08:35:22.104Z,3.10
2022-11-14T08:37:48.795Z,3.23
2022-11-14T08:40:15.632Z,3.10
2022-11-14T08:42:42.272Z,2.80
2022-11-14T08:45:09.184Z,3.70
2022-11-14T08:47:35.877Z,3.23
2022-11-14T08:50:02.493Z,3.57
2022-11-14T08:52:29.058Z,2.90
2022-11-14T08:54:55.592Z,3.43
2022-11-14T08:57:22.107Z,2.67
2022-11-14T08:59:48.631Z,2.90
2022-11-14T09:02:15.235Z,2.97
2022-11-14T09:04:42.886Z,2.93
2022-11-14T09:07:09.565Z,3.70
2022-11-14T09:09:36.590Z,3.43
2022-11-14T09:12:03.286Z,3.13
2022-11-14T09:14:29.867Z,2.80
2022-11-14T09:16:56.389Z,3.33
2022-11-14T09:19:22.964Z,2.90
2022-11-14T09:21:49.476Z,3.10
2022-11-14T09:24:16.034Z,2.87
2022-11-14T09:26:42.662Z,3.40
2022-11-14T09:29:09.215Z,3.20
2022-11-14T09:31:35.761Z,3.77
2022-11-14T09:34:02.357Z,2.90
2022-11-14T09:36:28.922Z,3.53
2022-11-14T09:38:55.473Z,3.73
2022-11-14T09:41:26.626Z,2.63
2022-11-14T09:44:21.384Z,3.20
2022-11-14T09:46:56.115Z,2.90
2022-11-14T09:49:33.066Z,3.07
2022-11-14T09:52:39.748Z,3.00
2022-11-14T09:55:16.248Z,3.23
2022-11-14T09:57:44.466Z,3.07
2022-11-14T10:00:19.834Z,2.90
2022-11-14T10:03:10.967Z,2.60
2022-11-14T10:05:55.268Z,11.57
2022-11-14T10:09:00.695Z,12.43
2022-11-14T10:11:36.633Z,12.83
2022-11-14T10:14:21.834Z,12.60
2022-11-14T10:20:03.031Z,9.53
2022-11-14T10:25:20.678Z,9.20
2022-11-14T10:28:28.787Z,7.23
2022-11-14T10:31:22.845Z,8.80
2022-11-14T10:33:57.942Z,7.90
2022-11-14T10:36:44.724Z,6.90
2022-11-14T10:39:21.015Z,7.60
2022-11-14T10:41:57.901Z,7.30
2022-11-14T10:44:50.464Z,7.40
2022-11-14T10:47:19.507Z,7.23
2022-11-14T10:49:46.968Z,7.00
2022-11-14T10:52:18.032Z,7.03
2022-11-14T10:54:50.413Z,7.43
2022-11-14T10:57:19.534Z,7.40
2022-11-14T10:59:47.176Z,6.77
2022-11-14T11:02:14.501Z,6.47
2022-11-14T11:04:42.634Z,6.93
2022-11-14T11:07:09.448Z,6.50
2022-11-14T11:09:59.248Z,6.70
2022-11-14T11:12:47.746Z,6.13
2022-11-14T11:15:24.824Z,6.60
2022-11-14T11:17:59.362Z,6.17
2022-11-14T11:20:33.330Z,6.37
2022-11-14T11:23:11.875Z,7.00
2022-11-14T11:25:40.087Z,6.20
2022-11-14T11:28:14.261Z,5.63
2022-11-14T11:30:54.870Z,5.73
2022-11-14T11:33:21.381Z,6.23
2022-11-14T11:35:54.864Z,5.50
2022-11-14T11:38:23.694Z,5.67
2022-11-14T11:40:54.053Z,5.93
2022-11-14T11:43:42.614Z,5.73
2022-11-14T11:46:18.532Z,5.40
2022-11-14T11:48:47.762Z,6.33
2022-11-14T11:51:19.926Z,5.57
2022-11-14T11:54:00.201Z,5.30
2022-11-14T11:56:31.417Z,5.50
2022-11-14T11:59:23.986Z,5.90
2022-11-14T12:01:51.957Z,5.50
2022-11-14T12:04:18.737Z,6.27
2022-11-14T12:07:13.789Z,5.30
2022-11-14T12:12:51.061Z,7.10
2022-11-14T12:15:44.849Z,6.97
2022-11-14T12:18:20.196Z,8.70
2022-11-14T12:21:05.791Z,10.53
2022-11-14T12:23:57.144Z,12.87
2022-11-14T12:27:00.432Z,15.43
2022-11-14T12:30:00.991Z,15.17
2022-11-14T12:32:43.539Z,16.17
2022-11-14T12:35:22.052Z,16.43
2022-11-14T12:37:55.568Z,15.30
2022-11-14T12:40:35.495Z,16.00
2022-11-14T12:43:03.784Z,16.63
2022-11-14T12:45:36.103Z,15.83
2022-11-14T12:48:27.027Z,15.17
2022-11-14T12:50:55.253Z,15.80
2022-11-14T12:53:39.183Z,14.80
2022-11-14T12:56:30.522Z,15.53
2022-11-14T12:59:09.452Z,14.33
2022-11-14T13:01:36.044Z,15.60
2022-11-14T13:04:13.882Z,15.07
2022-11-14T13:06:54.342Z,15.77
2022-11-14T13:09:50.650Z,14.83
2022-11-14T13:12:45.421Z,13.60
2022-11-14T13:16:01.191Z,13.90
2022-11-14T13:18:46.711Z,12.90
2022-11-14T13:21:46.245Z,12.43
2022-11-14T13:24:18.644Z,12.80
2022-11-14T13:26:50.551Z,12.43
2022-11-14T13:29:35.902Z,12.83
2022-11-14T13:32:02.507Z,12.17
2022-11-14T13:34:47.825Z,14.07
2022-11-14T13:37:36.102Z,13.20
2022-11-14T13:40:11.731Z,11.83
2022-11-14T13:43:04.879Z,11.77
2022-11-14T13:45:50.183Z,11.40
2022-11-14T13:48:47.223Z,11.60
2022-11-14T13:51:41.821Z,11.83
2022-11-14T13:54:18.023Z,10.73
2022-11-14T13:57:12.447Z,11.77
2022-11-14T13:59:53.898Z,10.37
2022-11-14T14:02:28.309Z,12.93
2022-11-14T14:05:20.747Z,11.13
2022-11-14T14:08:12.152Z,11.00
2022-11-14T14:10:41.458Z,11.27
2022-11-14T14:13:55.165Z,10.60
2022-11-14T14:16:36.343Z,10.87
2022-11-14T14:19:16.359Z,11.33
2022-11-14T14:22:06.031Z,10.40
2022-11-14T14:25:10.458Z,9.50
2022-11-14T14:27:55.551Z,10.23
2022-11-14T14:30:22.179Z,10.53
2022-11-14T14:33:09.892Z,9.50
2022-11-14T14:35:40.880Z,10.73
2022-11-14T14:38:26.076Z,10.20
2022-11-14T14:40:55.926Z,9.10
2022-11-14T14:43:28.973Z,9.30
2022-11-14T14:45:55.655Z,8.83
2022-11-14T14:48:28.686Z,8.70
2022-11-14T14:51:00.208Z,9.13
2022-11-14T14:53:31.708Z,8.67
2022-11-14T14:56:00.708Z,9.07
2022-11-14T14:58:30.049Z,8.57
2022-11-14T15:01:06.138Z,7.87
2022-11-14T15:03:37.641Z,8.77
2022-11-14T15:06:17.121Z,7.77
2022-11-14T15:08:45.729Z,7.33
2022-11-14T15:11:14.486Z,7.97
2022-11-14T15:13:42.073Z,7.33
2022-11-14T15:16:09.609Z,8.13
2022-11-14T15:18:36.856Z,8.10
2022-11-14T15:21:08.006Z,7.77
2022-11-14T15:23:35.652Z,8.03
2022-11-14T15:26:03.187Z,7.50
2022-11-14T15:28:30.811Z,7.10
2022-11-14T15:31:03.002Z,6.87
2022-11-14T15:33:35.056Z,8.20
2022-11-14T15:36:07.319Z,7.33
2022-11-14T15:38:43.956Z,7.27
2022-11-14T15:41:25.335Z,6.83
2022-11-14T15:43:53.382Z,6.90
2022-11-14T15:46:35.492Z,6.90
2022-11-14T15:49:18.732Z,6.70
2022-11-14T15:51:56.096Z,7.33
2022-11-14T15:54:28.936Z,7.67
2022-11-14T15:57:00.811Z,6.83
2022-11-14T15:59:30.416Z,6.90
2022-11-14T16:02:01.850Z,6.00
2022-11-14T16:04:32.919Z,7.13
2022-11-14T16:06:59.670Z,6.87
2022-11-14T16:09:26.309Z,7.17
2022-11-14T16:11:52.972Z,6.90
2022-11-14T16:14:19.499Z,7.00
2022-11-14T16:16:46.040Z,7.13
2022-11-14T16:19:14.965Z,5.80
2022-11-14T16:21:42.071Z,6.50
2022-11-14T16:24:20.492Z,6.47
2022-11-14T16:26:47.795Z,6.57
2022-11-14T16:29:15.063Z,6.20
2022-11-14T16:31:41.774Z,6.90
2022-11-14T16:34:15.624Z,6.70
2022-11-14T16:36:45.083Z,6.50
2022-11-14T16:39:13.454Z,6.40
2022-11-14T16:41:40.959Z,5.87
2022-11-14T16:44:13.753Z,5.97
2022-11-14T16:46:40.367Z,6.50
2022-11-14T16:49:06.903Z,5.60
2022-11-14T16:51:50.871Z,5.47
2022-11-14T16:54:19.542Z,5.70
2022-11-14T16:56:46.528Z,5.13
2022-11-14T16:59:13.357Z,5.50
2022-11-14T17:01:40.073Z,6.10
2022-11-14T17:04:06.670Z,5.43
2022-11-14T17:06:33.788Z,5.40
2022-11-14T17:09:01.141Z,5.40
2022-11-14T17:11:28.325Z,5.17
2022-11-14T17:13:55.947Z,5.43
2022-11-14T17:16:22.591Z,5.47
2022-11-14T17:18:55.815Z,5.43
2022-11-14T17:21:23.194Z,4.40
2022-11-14T17:24:01.435Z,5.23
2022-11-14T17:26:29.057Z,4.67
2022-11-14T17:28:55.936Z,4.70
2022-11-14T17:31:22.599Z,5.07
2022-11-14T17:33:54.470Z,5.10
2022-11-14T17:36:21.903Z,5.40
2022-11-14T17:38:48.539Z,5.30
2022-11-14T17:41:15.115Z,6.07
2022-11-14T17:43:41.957Z,5.03
2022-11-14T17:46:15.603Z,5.00
2022-11-14T17:48:44.126Z,5.23
2022-11-14T17:51:13.431Z,5.00
2022-11-14T17:53:40.627Z,5.83
2022-11-14T17:56:08.017Z,5.70
2022-11-14T17:58:35.151Z,5.57
2022-11-14T18:01:01.849Z,4.83
2022-11-14T18:03:29.532Z,4.87
2022-11-14T18:06:19.017Z,4.90
2022-11-14T18:08:46.233Z,4.40
2022-11-14T18:11:14.334Z,5.20
2022-11-14T18:13:41.464Z,5.00
2022-11-14T18:16:13.813Z,4.80
2022-11-14T18:18:40.910Z,5.40
2022-11-14T18:21:08.466Z,5.00
2022-11-14T18:23:35.893Z,5.10
2022-11-14T18:26:12.334Z,4.50
2022-11-14T18:28:39.020Z,5.10
2022-11-14T18:31:07.735Z,5.43
2022-11-14T18:33:35.906Z,4.93
2022-11-14T18:36:03.962Z,5.20
2022-11-14T18:38:34.576Z,4.60
2022-11-14T18:41:03.393Z,4.83
2022-11-14T18:43:36.213Z,5.23
2022-11-14T18:46:06.811Z,4.47
2022-11-14T18:48:34.225Z,5.23
2022-11-14T18:51:06.518Z,5.10
2022-11-14T18:53:35.047Z,3.90
2022-11-14T18:56:10.172Z,4.13
2022-11-14T18:58:39.576Z,4.70
2022-11-14T19:01:12.112Z,4.50
2022-11-14T19:03:39.004Z,4.07
2022-11-14T19:06:07.332Z,4.50
2022-11-14T19:08:34.035Z,4.77
2022-11-14T19:11:06.306Z,4.70
2022-11-14T19:13:33.195Z,4.80
2022-11-14T19:16:04.428Z,3.97
2022-11-14T19:18:31.614Z,4.47
2022-11-14T19:20:59.876Z,4.57
2022-11-14T19:23:27.189Z,4.63
2022-11-14T19:26:01.181Z,4.50
2022-11-14T19:28:31.417Z,4.17
2022-11-14T19:31:02.283Z,4.43
2022-11-14T19:33:29.284Z,3.67
2022-11-14T19:35:56.245Z,4.30
2022-11-14T19:38:23.003Z,4.10
2022-11-14T19:40:51.036Z,3.87
2022-11-14T19:43:18.693Z,4.27
2022-11-14T19:45:45.277Z,3.90
2022-11-14T19:48:11.871Z,3.40
2022-11-14T19:50:38.424Z,4.10
2022-11-14T19:53:05.276Z,4.43
2022-11-14T19:55:32.037Z,3.57
2022-11-14T19:57:59.350Z,3.90
2022-11-14T20:00:26.673Z,3.50
2022-11-14T20:02:53.192Z,4.13
2022-11-14T20:05:19.737Z,3.90
2022-11-14T20:07:46.422Z,4.10
2022-11-14T20:10:13.152Z,3.90
2022-11-14T20:12:39.721Z,3.57
2022-11-14T20:15:06.816Z,4.37
2022-11-14T20:17:33.348Z,4.10
2022-11-14T20:19:59.899Z,4.47
2022-11-14T20:22:26.415Z,3.77
2022-11-14T20:24:52.961Z,3.30
2022-11-14T20:27:19.519Z,3.80
2022-11-14T20:29:46.047Z,4.00
2022-11-14T20:32:15.710Z,3.97
2022-11-14T20:34:42.555Z,3.97
2022-11-14T20:37:11.798Z,3.83
2022-11-14T20:39:38.695Z,3.73
2022-11-14T20:42:05.337Z,3.70
2022-11-14T20:44:31.896Z,3.30
2022-11-14T20:46:58.428Z,3.30
2022-11-14T20:49:25.062Z,3.47
2022-11-14T20:51:51.628Z,3.80
2022-11-14T20:54:18.164Z,3.00
2022-11-14T20:56:44.712Z,3.13
2022-11-14T20:59:11.288Z,3.60
2022-11-14T21:01:43.274Z,3.50
2022-11-14T21:04:10.476Z,3.37
2022-11-14T21:06:37.127Z,3.40
2022-11-14T21:09:03.825Z,3.33
2022-11-14T21:11:30.412Z,3.93
2022-11-14T21:13:58.612Z,3.50
2022-11-14T21:16:33.267Z,3.80
2022-11-14T21:19:04.644Z,3.53
2022-11-14T21:21:34.364Z,3.00
2022-11-14T21:24:00.939Z,4.47
2022-11-14T21:26:32.736Z,2.93
2022-11-14T21:29:02.356Z,3.10
2022-11-14T21:31:33.232Z,3.30
2022-11-14T21:34:02.125Z,2.93
2022-11-14T21:36:46.453Z,3.77
2022-11-14T21:39:15.496Z,3.07
2022-11-14T21:41:45.915Z,4.03
2022-11-14T21:44:14.429Z,3.30
2022-11-14T21:46:41.645Z,3.10
2022-11-14T21:49:09.024Z,3.67
2022-11-14T21:51:35.843Z,3.50
2022-11-14T21:54:02.808Z,3.57
2022-11-14T21:56:31.695Z,3.10
2022-11-14T21:59:15.483Z,3.90
2022-11-14T22:02:09.262Z,3.07
2022-11-14T22:04:37.071Z,3.30
2022-11-14T22:07:07.640Z,3.60
2022-11-14T22:09:35.027Z,3.30
2022-11-14T22:12:02.149Z,3.27
2022-11-14T22:14:29.493Z,3.60
2022-11-14T22:16:56.518Z,3.90
2022-11-14T22:19:23.296Z,3.70
2022-11-14T22:21:49.953Z,3.33
2022-11-14T22:24:16.490Z,3.33
2022-11-14T22:26:43.123Z,2.83
2022-11-14T22:29:09.814Z,3.60
2022-11-14T22:31:37.713Z,3.00
2022-11-14T22:34:04.995Z,4.03
2022-11-14T22:36:31.799Z,3.60
2022-11-14T22:38:58.436Z,3.20
2022-11-14T22:41:32.310Z,2.93
2022-11-14T22:43:59.989Z,3.33
2022-11-14T22:46:27.208Z,3.03
2022-11-14T22:48:54.535Z,3.30
2022-11-14T22:51:23.463Z,3.30
2022-11-14T22:53:54.568Z,3.40
2022-11-14T22:56:23.473Z,3.40
2022-11-14T22:58:50.526Z,3.17
2022-11-14T23:01:32.244Z,3.07
2022-11-14T23:04:01.859Z,2.40
2022-11-14T23:06:31.942Z,3.33
2022-11-14T23:08:59.748Z,3.13
2022-11-14T23:11:29.487Z,3.27
2022-11-14T23:13:57.712Z,3.00
2022-11-14T23:16:26.727Z,3.60
2022-11-14T23:18:55.307Z,3.33
2022-11-14T23:21:25.146Z,3.10
2022-11-14T23:24:01.942Z,2.70
2022-11-14T23:26:30.841Z,3.77
2022-11-14T23:28:57.434Z,2.90
2022-11-14T23:31:27.308Z,3.07
2022-11-14T23:33:56.071Z,3.30
2022-11-14T23:36:22.698Z,2.90
2022-11-14T23:38:52.507Z,2.90
2022-11-14T23:41:21.810Z,3.13
2022-11-14T23:43:48.711Z,3.53
2022-11-14T23:46:15.560Z,3.07
2022-11-14T23:48:42.488Z,2.70
2022-11-14T23:51:09.647Z,3.00
2022-11-14T23:53:36.399Z,3.20
2022-11-14T23:56:03.439Z,3.07
2022-11-14T23:58:30.595Z,3.27
